createdAt,value
2024-02-27T00:00:24.781Z,39.40
2024-02-27T00:02:26.705Z,39.50
2024-02-27T00:04:28.553Z,39.40
2024-02-27T00:06:30.558Z,39.20
2024-02-27T00:08:32.405Z,39.10
2024-02-27T00:10:34.305Z,39.20
2024-02-27T00:12:36.231Z,39.20
2024-02-27T00:14:38.170Z,39.20
2024-02-27T00:16:40.021Z,39.20
2024-02-27T00:18:42.064Z,39.10
2024-02-27T00:20:44.433Z,39.10
2024-02-27T00:22:46.298Z,39.10
2024-02-27T00:24:48.140Z,39.20
2024-02-27T00:26:50.028Z,39.20
2024-02-27T00:28:51.870Z,39.10
2024-02-27T00:30:53.815Z,39.20
2024-02-27T00:32:55.796Z,39.20
2024-02-27T00:34:57.873Z,39.20
2024-02-27T00:36:59.765Z,39.10
2024-02-27T00:39:01.736Z,39.10
2024-02-27T00:41:03.892Z,39.20
2024-02-27T00:43:05.792Z,39.20
2024-02-27T00:45:07.745Z,39.20
2024-02-27T00:47:09.656Z,39.20
2024-02-27T00:49:11.757Z,39.10
2024-02-27T00:51:13.844Z,39.20
2024-02-27T00:53:15.798Z,39.20
2024-02-27T00:55:17.920Z,39.30
2024-02-27T00:57:19.754Z,39.30
2024-02-27T00:59:21.770Z,39.20
2024-02-27T01:01:23.645Z,39.20
2024-02-27T01:03:25.624Z,39.30
2024-02-27T01:05:27.684Z,39.30
2024-02-27T01:07:29.859Z,39.40
2024-02-27T01:09:31.735Z,39.70
2024-02-27T01:11:33.644Z,39.70
2024-02-27T01:13:35.528Z,39.70
2024-02-27T01:15:37.528Z,39.50
2024-02-27T01:17:39.374Z,39.50
2024-02-27T01:19:41.306Z,39.50
2024-02-27T01:21:43.275Z,39.60
2024-02-27T01:23:45.233Z,39.60
2024-02-27T01:25:47.082Z,39.60
2024-02-27T01:27:49.109Z,39.70
2024-02-27T01:29:51.298Z,39.60
2024-02-27T01:31:53.770Z,39.60
2024-02-27T01:33:55.843Z,39.70
2024-02-27T01:35:58.087Z,39.50
2024-02-27T01:38:00.037Z,39.60
2024-02-27T01:40:02.113Z,39.40
2024-02-27T01:42:04.110Z,39.50
2024-02-27T01:44:06.031Z,39.40
2024-02-27T01:46:13.498Z,39.40
2024-02-27T01:48:15.645Z,39.40
2024-02-27T01:50:17.672Z,39.40
2024-02-27T01:52:20.404Z,39.60
2024-02-27T01:54:23.442Z,39.60
2024-02-27T01:56:26.015Z,40.30
2024-02-27T01:58:27.851Z,39.60
2024-02-27T02:00:29.918Z,39.60
2024-02-27T02:02:31.824Z,39.60
2024-02-27T02:04:33.845Z,39.70
2024-02-27T02:06:39.468Z,39.50
2024-02-27T02:08:41.406Z,39.60
2024-02-27T02:10:43.337Z,39.50
2024-02-27T02:12:45.449Z,39.60
2024-02-27T02:14:47.273Z,39.60
2024-02-27T02:16:49.172Z,39.50
2024-02-27T02:18:51.225Z,39.60
2024-02-27T02:20:53.120Z,39.80
2024-02-27T02:22:54.918Z,39.70
2024-02-27T02:24:56.864Z,39.70
2024-02-27T02:26:58.890Z,39.60
2024-02-27T02:29:01.054Z,39.60
2024-02-27T02:31:02.908Z,39.60
2024-02-27T02:33:05.123Z,39.50
2024-02-27T02:35:07.234Z,39.70
2024-02-27T02:37:09.343Z,39.60
2024-02-27T02:39:11.286Z,39.60
2024-02-27T02:41:13.225Z,40.10
2024-02-27T02:43:15.135Z,39.60
2024-02-27T02:45:17.198Z,39.60
2024-02-27T02:47:19.038Z,39.70
2024-02-27T02:49:21.014Z,39.60
2024-02-27T02:51:23.030Z,39.60
2024-02-27T02:53:24.967Z,39.60
2024-02-27T02:55:26.901Z,39.60
2024-02-27T02:57:29.377Z,39.70
2024-02-27T02:59:31.244Z,39.80
2024-02-27T03:01:33.140Z,39.80
2024-02-27T03:03:35.065Z,39.90
2024-02-27T03:05:36.976Z,39.80
2024-02-27T03:07:42.104Z,39.80
2024-02-27T03:09:44.099Z,39.90
2024-02-27T03:11:45.921Z,39.90
2024-02-27T03:13:47.839Z,39.90
2024-02-27T03:15:49.895Z,39.90
2024-02-27T03:17:51.890Z,39.80
2024-02-27T03:19:53.763Z,39.90
2024-02-27T03:21:55.707Z,39.80
2024-02-27T03:23:57.542Z,39.80
2024-02-27T03:25:59.436Z,39.90
2024-02-27T03:28:01.258Z,39.90
2024-02-27T03:30:03.658Z,40.00
2024-02-27T03:32:05.739Z,40.00
2024-02-27T03:34:07.888Z,40.00
2024-02-27T03:36:09.821Z,39.90
2024-02-27T03:38:11.699Z,39.90
2024-02-27T03:40:13.571Z,40.00
2024-02-27T03:42:15.524Z,39.90
2024-02-27T03:44:17.377Z,39.80
2024-02-27T03:46:19.349Z,39.80
2024-02-27T03:48:21.569Z,39.80
2024-02-27T03:50:23.584Z,39.80
2024-02-27T03:52:25.408Z,39.80
2024-02-27T03:54:27.474Z,39.80
2024-02-27T03:56:29.320Z,39.90
2024-02-27T03:58:31.234Z,39.90
2024-02-27T04:00:33.161Z,39.90
2024-02-27T04:02:35.148Z,39.90
2024-02-27T04:04:36.992Z,39.90
2024-02-27T04:06:38.973Z,40.00
2024-02-27T04:08:40.906Z,39.90
2024-02-27T04:10:42.954Z,39.90
2024-02-27T04:12:44.913Z,39.90
2024-02-27T04:14:46.854Z,40.20
2024-02-27T04:16:48.701Z,40.00
2024-02-27T04:18:50.727Z,40.10
2024-02-27T04:20:52.703Z,40.70
2024-02-27T04:22:54.573Z,40.00
2024-02-27T04:24:56.402Z,40.00
2024-02-27T04:26:58.498Z,40.00
2024-02-27T04:29:00.321Z,40.00
2024-02-27T04:31:02.213Z,39.90
2024-02-27T04:33:04.274Z,40.00
2024-02-27T04:35:06.257Z,40.00
2024-02-27T04:37:08.043Z,40.00
2024-02-27T04:39:09.948Z,40.00
2024-02-27T04:41:11.951Z,40.20
2024-02-27T04:43:13.828Z,40.20
2024-02-27T04:45:15.666Z,40.20
2024-02-27T04:47:17.553Z,40.20
2024-02-27T04:49:19.533Z,40.10
2024-02-27T04:51:21.616Z,40.10
2024-02-27T04:53:23.483Z,40.00
2024-02-27T04:55:25.410Z,40.10
2024-02-27T04:57:27.382Z,40.10
2024-02-27T04:59:29.371Z,40.00
2024-02-27T05:01:31.281Z,40.10
2024-02-27T05:03:33.282Z,40.00
2024-02-27T05:05:36.606Z,40.00
2024-02-27T05:07:38.480Z,40.10
2024-02-27T05:09:40.364Z,40.20
2024-02-27T05:11:42.302Z,40.20
2024-02-27T05:13:44.101Z,40.10
2024-02-27T05:15:46.046Z,40.10
2024-02-27T05:17:48.026Z,40.10
2024-02-27T05:19:49.994Z,40.20
2024-02-27T05:21:51.851Z,40.20
2024-02-27T05:23:53.776Z,40.30
2024-02-27T05:25:55.616Z,40.30
2024-02-27T05:27:57.549Z,40.20
2024-02-27T05:29:59.422Z,40.80
2024-02-27T05:32:01.399Z,40.20
2024-02-27T05:34:03.291Z,40.20
2024-02-27T05:36:05.513Z,40.10
2024-02-27T05:38:07.350Z,40.10
2024-02-27T05:40:09.608Z,40.10
2024-02-27T05:42:11.475Z,40.10
2024-02-27T05:44:13.409Z,40.20
2024-02-27T05:46:15.225Z,40.30
2024-02-27T05:48:17.242Z,40.40
2024-02-27T05:50:19.123Z,40.30
2024-02-27T05:52:20.993Z,40.30
2024-02-27T05:54:22.845Z,40.20
2024-02-27T05:56:24.756Z,40.30
2024-02-27T05:58:26.615Z,40.30
2024-02-27T06:00:28.602Z,40.30
2024-02-27T06:02:30.465Z,40.30
2024-02-27T06:04:32.681Z,40.20
2024-02-27T06:06:34.604Z,40.20
2024-02-27T06:08:36.582Z,40.20
2024-02-27T06:10:38.422Z,40.10
2024-02-27T06:12:40.405Z,40.20
2024-02-27T06:14:42.325Z,40.20
2024-02-27T06:16:44.236Z,40.20
2024-02-27T06:18:46.143Z,40.20
2024-02-27T06:20:48.103Z,40.20
2024-02-27T06:22:49.913Z,40.30
2024-02-27T06:24:52.007Z,40.20
2024-02-27T06:26:53.974Z,40.30
2024-02-27T06:28:55.893Z,40.40
2024-02-27T06:30:57.764Z,40.40
2024-02-27T06:32:59.781Z,40.40
2024-02-27T06:35:01.685Z,40.40
2024-02-27T06:37:03.715Z,40.40
2024-02-27T06:39:05.530Z,40.40
2024-02-27T06:41:08.574Z,40.30
2024-02-27T06:43:10.567Z,41.00
2024-02-27T06:45:13.247Z,40.30
2024-02-27T06:47:15.100Z,40.30
2024-02-27T06:49:22.785Z,40.30
2024-02-27T06:51:25.577Z,40.30
2024-02-27T06:53:27.514Z,40.40
2024-02-27T06:55:29.325Z,40.40
2024-02-27T06:57:31.334Z,40.50
2024-02-27T06:59:33.248Z,40.50
2024-02-27T07:01:35.171Z,40.50
2024-02-27T07:03:37.110Z,40.40
2024-02-27T07:05:46.769Z,40.30
2024-02-27T07:07:54.464Z,40.50
2024-02-27T07:09:56.381Z,40.40
2024-02-27T07:11:59.605Z,40.30
2024-02-27T07:14:01.569Z,40.30
2024-02-27T07:16:03.423Z,40.40
2024-02-27T07:18:05.633Z,40.30
2024-02-27T07:20:08.250Z,40.40
2024-02-27T07:22:10.145Z,40.40
2024-02-27T07:24:12.008Z,40.30
2024-02-27T07:26:13.953Z,40.40
2024-02-27T07:28:20.832Z,40.40
2024-02-27T07:30:28.857Z,40.40
2024-02-27T07:32:30.766Z,40.40
2024-02-27T07:34:32.953Z,40.50
2024-02-27T07:36:34.858Z,40.50
2024-02-27T07:38:36.727Z,40.50
2024-02-27T07:40:38.572Z,40.50
2024-02-27T07:42:40.503Z,40.50
2024-02-27T07:44:42.344Z,40.50
2024-02-27T07:46:44.291Z,40.50
2024-02-27T07:48:46.622Z,40.90
2024-02-27T07:50:48.526Z,42.30
2024-02-27T07:52:50.382Z,41.90
2024-02-27T07:54:52.295Z,42.90
2024-02-27T07:56:54.132Z,42.70
2024-02-27T07:58:56.968Z,42.50
2024-02-27T08:00:58.858Z,42.50
2024-02-27T08:03:00.929Z,42.20
2024-02-27T08:05:02.817Z,42.10
2024-02-27T08:07:04.964Z,42.20
2024-02-27T08:09:06.844Z,42.10
2024-02-27T08:11:08.781Z,42.20
2024-02-27T08:13:10.764Z,42.10
2024-02-27T08:15:12.734Z,42.20
2024-02-27T08:17:14.597Z,42.60
2024-02-27T08:19:16.603Z,42.70
2024-02-27T08:21:18.516Z,42.70
2024-02-27T08:23:20.443Z,42.90
2024-02-27T08:25:22.255Z,42.50
2024-02-27T08:27:24.229Z,42.10
2024-02-27T08:29:26.118Z,42.10
2024-02-27T08:31:28.133Z,41.70
2024-02-27T08:33:33.261Z,41.60
2024-02-27T08:35:35.298Z,41.50
2024-02-27T08:37:37.148Z,41.50
2024-02-27T08:39:39.164Z,41.50
2024-02-27T08:41:41.156Z,42.50
2024-02-27T08:43:43.048Z,42.10
2024-02-27T08:45:44.964Z,42.00
2024-02-27T08:47:46.979Z,42.40
2024-02-27T08:49:48.902Z,42.20
2024-02-27T08:51:50.887Z,42.20
2024-02-27T08:53:52.789Z,42.50
2024-02-27T08:55:54.710Z,42.20
2024-02-27T08:57:56.511Z,42.50
2024-02-27T08:59:58.476Z,42.20
2024-02-27T09:02:00.349Z,42.50
2024-02-27T09:04:05.424Z,42.60
2024-02-27T09:06:07.814Z,42.30
2024-02-27T09:08:09.797Z,42.60
2024-02-27T09:10:12.143Z,42.80
2024-02-27T09:12:14.148Z,42.00
2024-02-27T09:14:16.027Z,42.40
2024-02-27T09:16:17.987Z,41.70
2024-02-27T09:18:19.882Z,41.90
2024-02-27T09:20:21.836Z,41.90
2024-02-27T09:22:23.619Z,42.40
2024-02-27T09:24:25.609Z,42.50
2024-02-27T09:26:27.510Z,42.40
2024-02-27T09:28:29.379Z,42.60
2024-02-27T09:30:31.253Z,42.60
2024-02-27T09:32:33.212Z,42.60
2024-02-27T09:34:35.230Z,42.20
2024-02-27T09:36:37.218Z,42.60
2024-02-27T09:38:39.031Z,42.80
2024-02-27T09:40:41.352Z,42.70
2024-02-27T09:42:43.870Z,43.00
2024-02-27T09:44:45.855Z,42.50
2024-02-27T09:46:49.050Z,42.50
2024-02-27T09:48:56.328Z,42.70
2024-02-27T09:50:58.465Z,42.70
2024-02-27T09:53:00.487Z,42.60
2024-02-27T09:55:02.589Z,44.50
2024-02-27T09:57:05.050Z,43.60
2024-02-27T09:59:06.930Z,44.00
2024-02-27T10:01:11.570Z,44.40
2024-02-27T10:03:14.469Z,44.40
2024-02-27T10:05:17.724Z,44.20
2024-02-27T10:07:19.804Z,44.40
2024-02-27T10:09:22.644Z,43.90
2024-02-27T10:11:24.669Z,43.80
2024-02-27T10:13:26.658Z,44.50
2024-02-27T10:15:28.559Z,44.20
2024-02-27T10:17:30.523Z,44.10
2024-02-27T10:19:32.968Z,43.70
2024-02-27T10:21:35.305Z,44.40
2024-02-27T10:23:37.823Z,44.40
2024-02-27T10:25:39.803Z,44.00
2024-02-27T10:27:44.430Z,44.30
2024-02-27T10:29:46.457Z,44.10
2024-02-27T10:31:48.422Z,44.80
2024-02-27T10:33:51.778Z,43.90
2024-02-27T10:35:53.736Z,43.70
2024-02-27T10:37:55.736Z,43.60
2024-02-27T10:39:57.571Z,43.70
2024-02-27T10:41:59.761Z,44.10
2024-02-27T10:44:07.794Z,43.70
2024-02-27T10:46:14.943Z,44.00
2024-02-27T10:48:21.815Z,44.00
2024-02-27T10:50:26.356Z,44.40
2024-02-27T10:52:29.421Z,43.80
2024-02-27T10:54:32.219Z,43.80
2024-02-27T10:56:34.729Z,44.00
2024-02-27T10:58:37.274Z,43.90
2024-02-27T11:00:39.217Z,43.70
2024-02-27T11:02:44.060Z,43.70
2024-02-27T11:04:46.978Z,43.60
2024-02-27T11:06:50.453Z,43.60
2024-02-27T11:08:54.812Z,43.00
2024-02-27T11:10:57.221Z,43.50
2024-02-27T11:13:01.016Z,43.30
2024-02-27T11:15:03.828Z,43.30
2024-02-27T11:17:09.967Z,43.50
2024-02-27T11:19:15.243Z,43.30
2024-02-27T11:21:17.606Z,44.00
2024-02-27T11:23:19.969Z,43.60
2024-02-27T11:25:21.983Z,43.40
2024-02-27T11:27:25.746Z,43.40
2024-02-27T11:29:27.778Z,43.50
2024-02-27T11:31:30.148Z,43.40
2024-02-27T11:33:43.246Z,43.30
2024-02-27T11:35:45.266Z,43.40
2024-02-27T11:37:48.940Z,43.50
2024-02-27T11:39:51.483Z,44.30
2024-02-27T11:41:53.596Z,44.10
2024-02-27T11:43:55.882Z,44.00
2024-02-27T11:45:57.736Z,43.60
2024-02-27T11:47:59.730Z,43.60
2024-02-27T11:50:01.787Z,44.50
2024-02-27T11:52:03.824Z,44.10
2024-02-27T11:54:08.581Z,45.30
2024-02-27T11:56:11.842Z,44.30
2024-02-27T11:58:14.453Z,44.50
2024-02-27T12:00:17.217Z,44.20
2024-02-27T12:02:19.325Z,44.70
2024-02-27T12:04:21.284Z,44.70
2024-02-27T12:06:23.276Z,44.60
2024-02-27T12:08:25.170Z,45.10
2024-02-27T12:10:27.442Z,44.70
2024-02-27T12:12:29.398Z,44.60
2024-02-27T12:14:31.938Z,44.80
2024-02-27T12:16:33.900Z,44.30
2024-02-27T12:18:35.935Z,44.10
2024-02-27T12:20:38.177Z,44.20
2024-02-27T12:22:41.032Z,44.10
2024-02-27T12:24:45.050Z,43.90
2024-02-27T12:26:48.518Z,44.50
2024-02-27T12:28:53.285Z,43.90
2024-02-27T12:30:55.246Z,44.10
2024-02-27T12:32:57.318Z,44.20
2024-02-27T12:34:59.197Z,44.20
2024-02-27T12:37:06.898Z,44.30
2024-02-27T12:39:09.151Z,44.30
2024-02-27T12:41:11.163Z,43.80
2024-02-27T12:43:13.137Z,43.90
2024-02-27T12:45:15.725Z,44.20
2024-02-27T12:47:17.782Z,43.90
2024-02-27T12:49:20.109Z,44.40
2024-02-27T12:51:22.068Z,44.30
2024-02-27T12:53:24.040Z,44.50
2024-02-27T12:55:26.261Z,44.80
2024-02-27T12:57:28.323Z,45.00
2024-02-27T12:59:30.190Z,45.10
2024-02-27T13:01:32.587Z,45.10
2024-02-27T13:03:37.614Z,44.50
2024-02-27T13:05:39.610Z,44.50
2024-02-27T13:07:41.714Z,45.30
2024-02-27T13:09:43.833Z,45.30
2024-02-27T13:11:45.909Z,44.50
2024-02-27T13:13:47.894Z,45.40
2024-02-27T13:15:50.786Z,44.30
2024-02-27T13:17:53.069Z,45.10
2024-02-27T13:19:55.183Z,44.90
2024-02-27T13:22:01.155Z,45.10
2024-02-27T13:24:03.039Z,44.40
2024-02-27T13:26:05.063Z,44.80
2024-02-27T13:28:06.859Z,44.50
2024-02-27T13:30:09.095Z,45.00
2024-02-27T13:32:11.112Z,44.60
2024-02-27T13:34:14.052Z,44.80
2024-02-27T13:36:15.965Z,44.50
2024-02-27T13:38:17.926Z,44.50
2024-02-27T13:40:19.771Z,44.50
2024-02-27T13:42:21.768Z,43.70
2024-02-27T13:44:23.734Z,44.60
2024-02-27T13:46:25.725Z,44.20
2024-02-27T13:48:27.680Z,44.20
2024-02-27T13:50:29.705Z,43.80
2024-02-27T13:52:31.657Z,43.60
2024-02-27T13:54:33.599Z,44.10
2024-02-27T13:56:35.452Z,43.80
2024-02-27T13:58:37.388Z,44.10
2024-02-27T14:00:39.411Z,44.00
2024-02-27T14:02:41.751Z,44.10
2024-02-27T14:04:43.613Z,43.70
2024-02-27T14:06:45.644Z,43.60
2024-02-27T14:08:47.552Z,43.60
2024-02-27T14:10:49.601Z,44.60
2024-02-27T14:12:51.486Z,44.30
2024-02-27T14:14:53.534Z,44.20
2024-02-27T14:16:55.366Z,43.70
2024-02-27T14:18:57.319Z,43.70
2024-02-27T14:20:59.270Z,43.70
2024-02-27T14:23:01.295Z,43.70
2024-02-27T14:25:03.180Z,43.70
2024-02-27T14:27:05.212Z,43.60
2024-02-27T14:29:07.059Z,43.40
2024-02-27T14:31:09.091Z,44.10
2024-02-27T14:33:11.166Z,44.00
2024-02-27T14:35:13.216Z,44.00
2024-02-27T14:37:15.058Z,44.00
2024-02-27T14:39:17.052Z,44.20
2024-02-27T14:41:18.895Z,44.40
2024-02-27T14:43:20.814Z,43.70
2024-02-27T14:45:22.727Z,44.40
2024-02-27T14:47:24.709Z,44.20
2024-02-27T14:49:26.684Z,44.50
2024-02-27T14:51:28.731Z,44.50
2024-02-27T14:53:30.536Z,43.90
2024-02-27T14:55:32.529Z,43.80
2024-02-27T14:57:34.450Z,44.10
2024-02-27T14:59:36.415Z,44.30
2024-02-27T15:01:38.371Z,43.90
2024-02-27T15:03:40.475Z,44.00
2024-02-27T15:05:42.331Z,43.80
2024-02-27T15:07:44.394Z,44.20
2024-02-27T15:09:46.512Z,44.00
2024-02-27T15:11:48.485Z,44.10
2024-02-27T15:13:50.301Z,44.20
2024-02-27T15:15:52.298Z,43.90
2024-02-27T15:17:54.211Z,43.90
2024-02-27T15:19:56.522Z,44.30
2024-02-27T15:21:58.561Z,44.20
2024-02-27T15:24:00.498Z,43.80
2024-02-27T15:26:02.321Z,43.30
2024-02-27T15:28:04.506Z,43.20
2024-02-27T15:30:06.851Z,43.90
2024-02-27T15:32:08.869Z,44.10
2024-02-27T15:34:10.886Z,44.20
2024-02-27T15:36:13.104Z,44.00
2024-02-27T15:38:14.961Z,44.00
2024-02-27T15:40:16.895Z,43.90
2024-02-27T15:42:18.800Z,44.10
2024-02-27T15:44:21.819Z,44.00
2024-02-27T15:46:23.905Z,44.10
2024-02-27T15:48:25.898Z,44.40
2024-02-27T15:50:27.803Z,44.80
2024-02-27T15:52:29.722Z,45.00
2024-02-27T15:54:31.621Z,45.30
2024-02-27T15:56:33.528Z,44.80
2024-02-27T15:58:36.125Z,44.60
2024-02-27T16:00:38.081Z,44.60
2024-02-27T16:02:39.930Z,44.80
2024-02-27T16:04:43.899Z,44.10
2024-02-27T16:06:47.689Z,44.60
2024-02-27T16:08:49.631Z,45.60
2024-02-27T16:10:51.545Z,44.30
2024-02-27T16:12:53.528Z,44.70
2024-02-27T16:14:55.355Z,44.50
2024-02-27T16:16:57.366Z,44.20
2024-02-27T16:18:59.266Z,43.60
2024-02-27T16:21:01.228Z,44.30
2024-02-27T16:23:03.077Z,44.50
2024-02-27T16:25:05.558Z,43.70
2024-02-27T16:27:07.520Z,43.70
2024-02-27T16:29:09.467Z,43.60
2024-02-27T16:31:12.153Z,43.60
2024-02-27T16:33:14.343Z,44.00
2024-02-27T16:35:16.523Z,43.90
2024-02-27T16:37:18.391Z,44.00
2024-02-27T16:39:20.539Z,44.20
2024-02-27T16:41:22.751Z,44.20
2024-02-27T16:43:24.593Z,44.80
2024-02-27T16:45:26.578Z,44.20
2024-02-27T16:47:28.465Z,44.30
2024-02-27T16:49:30.500Z,44.70
2024-02-27T16:51:32.554Z,44.70
2024-02-27T16:53:34.437Z,44.10
2024-02-27T16:55:36.234Z,44.40
2024-02-27T16:57:38.178Z,44.60
2024-02-27T16:59:40.062Z,44.40
2024-02-27T17:01:42.015Z,44.00
2024-02-27T17:03:44.002Z,43.80
2024-02-27T17:05:46.016Z,43.90
2024-02-27T17:07:47.845Z,43.70
2024-02-27T17:09:49.871Z,43.90
2024-02-27T17:11:51.805Z,43.90
2024-02-27T17:13:53.874Z,43.80
2024-02-27T17:15:55.825Z,44.10
2024-02-27T17:17:57.875Z,44.10
2024-02-27T17:19:59.742Z,44.40
2024-02-27T17:22:01.667Z,44.30
2024-02-27T17:24:03.541Z,44.30
2024-02-27T17:26:05.674Z,43.90
2024-02-27T17:28:07.548Z,43.80
2024-02-27T17:30:09.744Z,43.90
2024-02-27T17:32:11.633Z,43.90
2024-02-27T17:34:13.780Z,43.80
2024-02-27T17:36:15.729Z,44.20
2024-02-27T17:38:18.192Z,44.20
2024-02-27T17:40:20.016Z,44.30
2024-02-27T17:42:21.909Z,44.10
2024-02-27T17:44:23.745Z,44.20
2024-02-27T17:46:25.628Z,44.10
2024-02-27T17:48:27.530Z,44.40
2024-02-27T17:50:29.541Z,44.30
2024-02-27T17:52:31.351Z,43.90
2024-02-27T17:54:33.569Z,43.90
2024-02-27T17:56:35.456Z,43.80
2024-02-27T17:58:37.384Z,43.80
2024-02-27T18:00:39.365Z,43.70
2024-02-27T18:02:41.416Z,44.00
2024-02-27T18:04:43.362Z,43.60
2024-02-27T18:06:45.400Z,43.70
2024-02-27T18:08:47.262Z,43.60
2024-02-27T18:10:49.361Z,43.60
2024-02-27T18:12:51.204Z,43.60
2024-02-27T18:14:53.128Z,43.60
2024-02-27T18:16:54.929Z,43.50
2024-02-27T18:18:56.929Z,43.40
2024-02-27T18:20:58.776Z,43.40
2024-02-27T18:23:00.724Z,43.30
2024-02-27T18:25:02.561Z,43.40
2024-02-27T18:27:04.643Z,43.20
2024-02-27T18:29:06.453Z,43.30
2024-02-27T18:31:08.897Z,43.30
2024-02-27T18:33:10.797Z,43.20
2024-02-27T18:35:12.835Z,43.20
2024-02-27T18:37:14.711Z,43.10
2024-02-27T18:39:16.643Z,43.10
2024-02-27T18:41:18.502Z,43.10
2024-02-27T18:43:20.382Z,43.00
2024-02-27T18:45:22.250Z,43.20
2024-02-27T18:47:24.144Z,43.20
2024-02-27T18:49:26.144Z,43.20
2024-02-27T18:51:28.178Z,43.30
2024-02-27T18:53:29.997Z,43.10
2024-02-27T18:55:31.950Z,43.30
2024-02-27T18:57:33.778Z,43.30
2024-02-27T18:59:35.720Z,43.50
2024-02-27T19:01:37.565Z,43.20
2024-02-27T19:03:39.483Z,43.30
2024-02-27T19:05:41.371Z,43.20
2024-02-27T19:07:43.242Z,43.30
2024-02-27T19:09:45.212Z,43.40
2024-02-27T19:11:47.242Z,43.20
2024-02-27T19:13:49.368Z,43.20
2024-02-27T19:15:51.385Z,43.20
2024-02-27T19:17:53.254Z,43.20
2024-02-27T19:19:55.264Z,43.10
2024-02-27T19:21:57.128Z,43.10
2024-02-27T19:23:59.299Z,43.30
2024-02-27T19:26:01.129Z,43.10
2024-02-27T19:28:03.420Z,43.20
2024-02-27T19:30:05.657Z,43.00
2024-02-27T19:32:08.009Z,42.90
2024-02-27T19:34:09.805Z,42.90
2024-02-27T19:36:11.830Z,42.90
2024-02-27T19:38:18.507Z,42.90
2024-02-27T19:40:21.426Z,42.90
2024-02-27T19:42:23.221Z,42.80
2024-02-27T19:44:25.132Z,42.90
2024-02-27T19:46:26.975Z,43.00
2024-02-27T19:48:28.897Z,42.90
2024-02-27T19:50:30.724Z,42.90
2024-02-27T19:52:32.639Z,43.00
2024-02-27T19:54:34.595Z,42.80
2024-02-27T19:56:36.542Z,43.00
2024-02-27T19:58:38.389Z,43.00
2024-02-27T20:00:40.491Z,42.90
2024-02-27T20:02:42.378Z,42.90
2024-02-27T20:04:45.898Z,43.00
2024-02-27T20:06:48.064Z,43.00
2024-02-27T20:08:50.169Z,43.00
2024-02-27T20:10:52.047Z,42.90
2024-02-27T20:12:53.978Z,43.00
2024-02-27T20:14:55.853Z,42.80
2024-02-27T20:16:57.766Z,42.90
2024-02-27T20:18:59.603Z,42.90
2024-02-27T20:21:01.550Z,42.90
2024-02-27T20:23:03.398Z,42.90
2024-02-27T20:25:06.074Z,42.90
2024-02-27T20:27:07.959Z,42.90
2024-02-27T20:29:09.916Z,42.90
2024-02-27T20:31:12.045Z,42.70
2024-02-27T20:33:14.121Z,42.80
2024-02-27T20:35:16.179Z,42.80
2024-02-27T20:37:18.059Z,42.90
2024-02-27T20:39:19.908Z,42.70
2024-02-27T20:41:21.846Z,42.80
2024-02-27T20:43:23.677Z,42.70
2024-02-27T20:45:25.643Z,42.80
2024-02-27T20:47:27.586Z,42.70
2024-02-27T20:49:29.557Z,42.70
2024-02-27T20:51:31.483Z,42.70
2024-02-27T20:53:33.547Z,42.70
2024-02-27T20:55:35.406Z,42.80
2024-02-27T20:57:37.341Z,42.80
2024-02-27T20:59:39.284Z,42.80
2024-02-27T21:01:41.380Z,42.70
2024-02-27T21:03:43.253Z,42.90
2024-02-27T21:05:45.214Z,43.00
2024-02-27T21:07:47.050Z,42.80
2024-02-27T21:09:49.006Z,42.70
2024-02-27T21:11:50.875Z,42.80
2024-02-27T21:13:52.887Z,42.80
2024-02-27T21:15:54.774Z,42.80
2024-02-27T21:17:56.716Z,42.80
2024-02-27T21:19:58.549Z,42.80
2024-02-27T21:22:00.522Z,42.70
2024-02-27T21:24:03.131Z,42.70
2024-02-27T21:26:08.307Z,42.70
2024-02-27T21:28:10.143Z,42.70
2024-02-27T21:30:12.201Z,42.60
2024-02-27T21:32:14.121Z,42.70
2024-02-27T21:34:16.137Z,42.60
2024-02-27T21:36:18.007Z,42.60
2024-02-27T21:38:19.955Z,42.60
2024-02-27T21:40:21.800Z,42.60
2024-02-27T21:42:23.864Z,42.70
2024-02-27T21:44:25.707Z,42.80
2024-02-27T21:46:27.637Z,42.60
2024-02-27T21:48:29.529Z,42.60
2024-02-27T21:50:31.426Z,42.60
2024-02-27T21:52:33.289Z,42.60
2024-02-27T21:54:35.230Z,42.60
2024-02-27T21:56:37.031Z,42.70
2024-02-27T21:58:38.941Z,42.70
2024-02-27T22:00:40.822Z,42.70
2024-02-27T22:02:42.792Z,42.90
2024-02-27T22:04:44.631Z,42.80
2024-02-27T22:06:46.572Z,42.90
2024-02-27T22:08:48.438Z,42.80
2024-02-27T22:10:50.406Z,42.80
2024-02-27T22:12:52.354Z,42.70
2024-02-27T22:14:54.390Z,42.80
2024-02-27T22:16:56.209Z,42.70
2024-02-27T22:18:58.178Z,42.70
2024-02-27T22:21:00.738Z,42.80
2024-02-27T22:23:02.698Z,42.60
2024-02-27T22:25:04.619Z,42.70
2024-02-27T22:27:06.495Z,42.60
2024-02-27T22:29:08.335Z,42.50
2024-02-27T22:31:10.233Z,42.50
2024-02-27T22:33:12.222Z,42.60
2024-02-27T22:35:14.281Z,42.50
2024-02-27T22:37:16.126Z,42.60
2024-02-27T22:39:18.001Z,42.50
2024-02-27T22:41:20.192Z,42.50
2024-02-27T22:43:22.182Z,42.60
2024-02-27T22:45:24.125Z,42.60
2024-02-27T22:47:26.255Z,42.50
2024-02-27T22:49:28.091Z,42.50
2024-02-27T22:51:30.322Z,42.60
2024-02-27T22:53:32.140Z,42.50
2024-02-27T22:55:34.015Z,42.60
2024-02-27T22:57:35.913Z,42.50
2024-02-27T22:59:37.886Z,42.60
2024-02-27T23:01:39.756Z,42.70
2024-02-27T23:03:41.887Z,42.70
2024-02-27T23:05:43.729Z,42.70
2024-02-27T23:07:45.681Z,42.70
2024-02-27T23:09:47.586Z,42.60
2024-02-27T23:11:49.542Z,42.70
2024-02-27T23:13:51.444Z,42.70
2024-02-27T23:15:53.418Z,42.80
2024-02-27T23:17:55.297Z,42.70
2024-02-27T23:19:57.220Z,42.60
2024-02-27T23:21:59.086Z,42.50
2024-02-27T23:24:01.034Z,42.60
2024-02-27T23:26:02.872Z,42.60
2024-02-27T23:28:05.037Z,42.60
2024-02-27T23:30:07.231Z,42.50
2024-02-27T23:32:09.144Z,42.50
2024-02-27T23:34:10.958Z,42.50
2024-02-27T23:36:12.895Z,42.50
2024-02-27T23:38:14.749Z,42.50
2024-02-27T23:40:19.432Z,42.60
2024-02-27T23:42:21.331Z,42.50
2024-02-27T23:44:23.280Z,42.50
2024-02-27T23:46:25.077Z,42.50
2024-02-27T23:48:27.006Z,42.60
2024-02-27T23:50:28.821Z,42.50
2024-02-27T23:52:30.855Z,42.60
2024-02-27T23:54:32.706Z,42.50
2024-02-27T23:56:34.569Z,42.50
2024-02-27T23:58:36.405Z,42.60
